createdAt,value
2023-02-02T00:01:24.733Z,87361.91
2023-02-02T00:03:53.382Z,87362.91
2023-02-02T00:06:22.849Z,87358.56
2023-02-02T00:08:50.857Z,87352.59
2023-02-02T00:11:19.572Z,87358.56
2023-02-02T00:13:47.442Z,87356.53
2023-02-02T00:16:26.882Z,87347.47
2023-02-02T00:19:05.614Z,87353.47
2023-02-02T00:21:33.154Z,87364.34
2023-02-02T00:24:00.293Z,87362.38
2023-02-02T00:26:28.389Z,87351.66
2023-02-02T00:28:56.106Z,87362.38
2023-02-02T00:31:24.002Z,87347.53
2023-02-02T00:33:51.914Z,87355.25
2023-02-02T00:36:21.080Z,87350.56
2023-02-02T00:38:50.245Z,87347.75
2023-02-02T00:41:17.783Z,87352.63
2023-02-02T00:43:45.632Z,87353.81
2023-02-02T00:46:18.764Z,87345.69
2023-02-02T00:48:45.970Z,87346.25
2023-02-02T00:51:13.145Z,87356.09
2023-02-02T00:53:40.310Z,87350.56
2023-02-02T00:56:07.819Z,87352.94
2023-02-02T00:58:35.084Z,87340.28
2023-02-02T01:01:02.353Z,87348.28
2023-02-02T01:03:29.615Z,87344.06
2023-02-02T01:05:56.801Z,87345.91
2023-02-02T01:08:24.020Z,87347.66
2023-02-02T01:10:51.162Z,87348.94
2023-02-02T01:13:18.408Z,87332.16
2023-02-02T01:15:45.851Z,87352.97
2023-02-02T01:18:13.068Z,87349.81
2023-02-02T01:20:40.295Z,87346.44
2023-02-02T01:23:07.510Z,87358.25
2023-02-02T01:25:34.797Z,87361.84
2023-02-02T01:28:01.930Z,87346.53
2023-02-02T01:30:29.242Z,87347.94
2023-02-02T01:32:56.393Z,87341.25
2023-02-02T01:35:23.970Z,87350.00
2023-02-02T01:37:51.436Z,87358.44
2023-02-02T01:40:18.755Z,87352.94
2023-02-02T01:42:46.114Z,87339.25
2023-02-02T01:45:17.163Z,87331.25
2023-02-02T01:47:51.220Z,87331.47
2023-02-02T01:50:22.638Z,87329.19
2023-02-02T01:52:54.133Z,87328.22
2023-02-02T01:55:26.568Z,87334.09
2023-02-02T01:58:19.675Z,87324.53
2023-02-02T02:00:47.257Z,87331.91
2023-02-02T02:03:23.164Z,87321.94
2023-02-02T02:06:01.895Z,87325.41
2023-02-02T02:09:02.969Z,87327.03
2023-02-02T02:11:31.699Z,87334.63
2023-02-02T02:14:04.198Z,87324.97
2023-02-02T02:17:08.152Z,87319.56
2023-02-02T02:20:31.734Z,87324.44
2023-02-02T02:23:45.123Z,87330.38
2023-02-02T02:26:40.433Z,87323.44
2023-02-02T02:29:56.935Z,87337.56
2023-02-02T02:32:57.543Z,87320.63
2023-02-02T02:35:49.961Z,87302.78
2023-02-02T02:38:30.669Z,87309.81
2023-02-02T02:41:06.435Z,87317.81
2023-02-02T02:43:42.013Z,87319.88
2023-02-02T02:46:11.638Z,87331.47
2023-02-02T02:48:38.867Z,87309.25
2023-02-02T02:51:45.370Z,87323.34
2023-02-02T02:54:41.446Z,87315.75
2023-02-02T02:57:49.511Z,87328.53
2023-02-02T03:00:38.382Z,87327.56
2023-02-02T03:03:14.413Z,87341.44
2023-02-02T03:06:16.607Z,87334.06
2023-02-02T03:09:05.137Z,87323.66
2023-02-02T03:11:32.478Z,87329.63
2023-02-02T03:14:01.906Z,87323.91
2023-02-02T03:16:29.167Z,87317.59
2023-02-02T03:18:57.916Z,87315.00
2023-02-02T03:21:25.286Z,87323.66
2023-02-02T03:23:52.549Z,87324.44
2023-02-02T03:26:19.884Z,87313.25
2023-02-02T03:28:47.889Z,87322.69
2023-02-02T03:31:15.506Z,87321.28
2023-02-02T03:33:42.975Z,87323.88
2023-02-02T03:36:10.341Z,87320.09
2023-02-02T03:38:37.533Z,87317.19
2023-02-02T03:41:06.229Z,87321.19
2023-02-02T03:43:33.527Z,87313.06
2023-02-02T03:46:04.028Z,87311.22
2023-02-02T03:48:34.836Z,87308.41
2023-02-02T03:51:09.430Z,87300.03
2023-02-02T03:53:37.029Z,87307.63
2023-02-02T03:56:04.663Z,87297.00
2023-02-02T03:58:31.906Z,87303.06
2023-02-02T04:01:14.188Z,87317.38
2023-02-02T04:03:41.968Z,87327.22
2023-02-02T04:06:09.520Z,87320.31
2023-02-02T04:08:36.858Z,87326.94
2023-02-02T04:11:04.121Z,87322.16
2023-02-02T04:13:31.465Z,87331.94
2023-02-02T04:16:00.756Z,87325.09
2023-02-02T04:18:29.335Z,87313.38
2023-02-02T04:21:01.597Z,87321.94
2023-02-02T04:23:30.161Z,87326.06
2023-02-02T04:25:59.146Z,87330.28
2023-02-02T04:28:27.565Z,87315.88
2023-02-02T04:30:56.738Z,87327.16
2023-02-02T04:33:27.134Z,87324.97
2023-02-02T04:35:54.705Z,87327.69
2023-02-02T04:38:22.294Z,87341.13
2023-02-02T04:40:49.815Z,87338.94
2023-02-02T04:43:17.302Z,87336.03
2023-02-02T04:45:44.824Z,87337.56
2023-02-02T04:48:12.146Z,87332.56
2023-02-02T04:50:39.479Z,87327.56
2023-02-02T04:53:06.673Z,87327.16
2023-02-02T04:55:37.790Z,87331.06
2023-02-02T04:58:05.832Z,87320.31
2023-02-02T05:00:33.501Z,87320.00
2023-02-02T05:03:01.130Z,87311.00
2023-02-02T05:05:28.577Z,87319.13
2023-02-02T05:07:55.710Z,87325.72
2023-02-02T05:10:23.000Z,87326.91
2023-02-02T05:12:53.599Z,87332.09
2023-02-02T05:15:21.926Z,87323.47
2023-02-02T05:17:50.113Z,87321.94
2023-02-02T05:20:17.745Z,87322.25
2023-02-02T05:22:45.019Z,87320.75
2023-02-02T05:25:12.344Z,87322.78
2023-02-02T05:27:39.561Z,87311.31
2023-02-02T05:30:07.670Z,87315.75
2023-02-02T05:32:35.039Z,87325.28
2023-02-02T05:35:02.624Z,87339.56
2023-02-02T05:37:29.799Z,87322.34
2023-02-02T05:39:57.068Z,87343.25
2023-02-02T05:42:24.439Z,87335.78
2023-02-02T05:44:51.684Z,87338.03
2023-02-02T05:47:19.023Z,87354.59
2023-02-02T05:49:46.193Z,87343.88
2023-02-02T05:52:22.701Z,87352.28
2023-02-02T05:54:49.955Z,87350.38
2023-02-02T05:57:17.148Z,87365.00
2023-02-02T05:59:44.343Z,87359.28
2023-02-02T06:02:11.594Z,87365.22
2023-02-02T06:04:38.904Z,87358.97
2023-02-02T06:07:06.167Z,87360.75
2023-02-02T06:09:33.494Z,87355.56
2023-02-02T06:12:00.751Z,87343.06
2023-02-02T06:14:28.061Z,87346.78
2023-02-02T06:16:55.490Z,87346.94
2023-02-02T06:19:23.032Z,87347.38
2023-02-02T06:21:50.272Z,87356.47
2023-02-02T06:24:17.473Z,87364.53
2023-02-02T06:26:44.727Z,87358.22
2023-02-02T06:29:13.436Z,87367.41
2023-02-02T06:31:40.724Z,87365.28
2023-02-02T06:34:11.380Z,87356.94
2023-02-02T06:36:38.525Z,87364.75
2023-02-02T06:39:05.945Z,87358.44
2023-02-02T06:41:33.251Z,87360.28
2023-02-02T06:44:01.094Z,87371.13
2023-02-02T06:46:28.722Z,87373.75
2023-02-02T06:48:55.923Z,87364.97
2023-02-02T06:51:23.323Z,87368.13
2023-02-02T06:53:52.874Z,87361.91
2023-02-02T06:56:20.080Z,87366.28
2023-02-02T06:58:47.344Z,87366.72
2023-02-02T07:01:15.305Z,87357.97
2023-02-02T07:03:43.213Z,87361.19
2023-02-02T07:06:21.092Z,87366.97
2023-02-02T07:08:59.600Z,87371.06
2023-02-02T07:11:35.327Z,87376.06
2023-02-02T07:14:05.975Z,87376.31
2023-02-02T07:16:33.200Z,87381.41
2023-02-02T07:19:00.340Z,87375.66
2023-02-02T07:21:27.989Z,87391.72
2023-02-02T07:23:55.188Z,87397.75
2023-02-02T07:26:22.660Z,87393.75
2023-02-02T07:28:49.994Z,87396.78
2023-02-02T07:31:26.911Z,87404.28
2023-02-02T07:33:54.812Z,87402.19
2023-02-02T07:36:24.716Z,87409.03
2023-02-02T07:38:54.065Z,87406.22
2023-02-02T07:41:22.024Z,87423.03
2023-02-02T07:43:50.851Z,87417.06
2023-02-02T07:46:19.829Z,87423.34
2023-02-02T07:48:47.535Z,87441.22
2023-02-02T07:51:17.679Z,87430.13
2023-02-02T07:53:47.184Z,87428.88
2023-02-02T07:56:25.063Z,87430.28
2023-02-02T07:58:55.139Z,87436.34
2023-02-02T08:01:27.442Z,87434.75
2023-02-02T08:03:58.333Z,87440.16
2023-02-02T08:06:32.766Z,87452.81
2023-02-02T08:09:02.329Z,87440.69
2023-02-02T08:11:30.163Z,87440.00
2023-02-02T08:14:02.704Z,87442.41
2023-02-02T08:16:32.330Z,87439.41
2023-02-02T08:19:00.388Z,87443.38
2023-02-02T08:21:27.853Z,87445.44
2023-02-02T08:23:55.398Z,87450.22
2023-02-02T08:26:26.983Z,87447.94
2023-02-02T08:29:08.570Z,87450.47
2023-02-02T08:31:41.921Z,87448.69
2023-02-02T08:34:10.686Z,87453.28
2023-02-02T08:36:38.639Z,87446.34
2023-02-02T08:39:10.461Z,87451.44
2023-02-02T08:41:39.447Z,87458.28
2023-02-02T08:44:11.390Z,87466.94
2023-02-02T08:46:39.542Z,87452.88
2023-02-02T08:49:07.042Z,87463.41
2023-02-02T08:51:34.367Z,87460.13
2023-02-02T08:54:02.212Z,87457.53
2023-02-02T08:56:29.549Z,87454.31
2023-02-02T08:58:58.643Z,87468.94
2023-02-02T09:01:31.951Z,87465.59
2023-02-02T09:04:05.573Z,87466.75
2023-02-02T09:06:40.328Z,87467.84
2023-02-02T09:09:11.310Z,87467.19
2023-02-02T09:11:39.340Z,87455.72
2023-02-02T09:14:07.696Z,87450.41
2023-02-02T09:16:36.363Z,87450.84
2023-02-02T09:19:04.530Z,87459.06
2023-02-02T09:21:32.063Z,87466.97
2023-02-02T09:23:59.318Z,87476.00
2023-02-02T09:26:29.671Z,87480.44
2023-02-02T09:29:03.486Z,87487.91
2023-02-02T09:31:37.064Z,87497.38
2023-02-02T09:34:07.871Z,87491.47
2023-02-02T09:36:35.949Z,87479.03
2023-02-02T09:39:04.977Z,87491.22
2023-02-02T09:41:38.340Z,87497.09
2023-02-02T09:44:17.756Z,87501.41
2023-02-02T09:46:53.848Z,87520.38
2023-02-02T09:49:48.293Z,87513.38
2023-02-02T09:52:33.661Z,87521.44
2023-02-02T09:55:29.334Z,87521.44
2023-02-02T09:58:18.918Z,87531.44
2023-02-02T10:00:55.983Z,87526.91
2023-02-02T10:04:03.491Z,87536.97
2023-02-02T10:06:43.100Z,87558.06
2023-02-02T10:09:27.886Z,87553.22
2023-02-02T10:12:16.003Z,87560.34
2023-02-02T10:14:58.197Z,87555.97
2023-02-02T10:18:13.109Z,87560.28
2023-02-02T10:20:58.454Z,87568.38
2023-02-02T10:23:43.119Z,87562.19
2023-02-02T10:26:42.304Z,87551.31
2023-02-02T10:29:48.867Z,87552.59
2023-02-02T10:32:29.472Z,87553.13
2023-02-02T10:35:27.540Z,87546.88
2023-02-02T10:38:24.525Z,87556.06
2023-02-02T10:40:57.008Z,87555.09
2023-02-02T10:44:08.004Z,87560.41
2023-02-02T10:46:42.868Z,87544.94
2023-02-02T10:49:37.819Z,87542.19
2023-02-02T10:52:15.247Z,87550.34
2023-02-02T10:55:05.759Z,87537.75
2023-02-02T10:58:12.882Z,87528.47
2023-02-02T11:00:45.887Z,87529.38
2023-02-02T11:03:16.621Z,87532.78
2023-02-02T11:05:44.441Z,87531.94
2023-02-02T11:08:15.439Z,87520.00
2023-02-02T11:10:45.844Z,87530.19
2023-02-02T11:13:25.441Z,87512.22
2023-02-02T11:16:15.212Z,87515.91
2023-02-02T11:18:45.051Z,87509.63
2023-02-02T11:21:29.901Z,87509.84
2023-02-02T11:23:59.993Z,87509.41
2023-02-02T11:27:00.480Z,87506.38
2023-02-02T11:29:32.881Z,87504.84
2023-02-02T11:32:33.709Z,87510.28
2023-02-02T11:35:22.300Z,87501.16
2023-02-02T11:38:16.367Z,87504.09
2023-02-02T11:41:00.002Z,87497.03
2023-02-02T11:43:55.035Z,87481.19
2023-02-02T11:46:30.651Z,87499.00
2023-02-02T11:49:12.496Z,87497.69
2023-02-02T11:51:40.058Z,87487.13
2023-02-02T11:54:30.460Z,87483.34
2023-02-02T11:57:02.819Z,87472.25
2023-02-02T11:59:44.524Z,87466.38
2023-02-02T12:02:25.729Z,87477.06
2023-02-02T12:05:14.851Z,87456.72
2023-02-02T12:07:44.152Z,87468.75
2023-02-02T12:10:27.810Z,87463.63
2023-02-02T12:13:07.364Z,87473.09
2023-02-02T12:15:58.533Z,87468.13
2023-02-02T12:18:38.859Z,87449.22
2023-02-02T12:21:18.008Z,87462.13
2023-02-02T12:24:34.247Z,87454.94
2023-02-02T12:27:26.707Z,87442.03
2023-02-02T12:30:15.326Z,87442.88
2023-02-02T12:33:00.459Z,87435.91
2023-02-02T12:36:12.363Z,87426.00
2023-02-02T12:39:16.171Z,87427.84
2023-02-02T12:42:17.619Z,87430.66
2023-02-02T12:45:06.278Z,87433.09
2023-02-02T12:47:38.898Z,87434.03
2023-02-02T12:50:17.182Z,87434.69
2023-02-02T12:53:12.074Z,87439.59
2023-02-02T12:56:04.788Z,87452.66
2023-02-02T12:59:07.615Z,87446.97
2023-02-02T13:02:04.911Z,87446.59
2023-02-02T13:05:20.434Z,87441.47
2023-02-02T13:07:51.468Z,87447.66
2023-02-02T13:10:36.231Z,87444.72
2023-02-02T13:13:06.331Z,87445.28
2023-02-02T13:15:40.745Z,87457.78
2023-02-02T13:18:26.048Z,87459.66
2023-02-02T13:21:01.720Z,87468.34
2023-02-02T13:23:39.341Z,87469.50
2023-02-02T13:26:26.234Z,87467.22
2023-02-02T13:29:30.180Z,87475.50
2023-02-02T13:32:14.873Z,87481.38
2023-02-02T13:34:53.513Z,87474.66
2023-02-02T13:37:53.937Z,87489.31
2023-02-02T13:40:29.493Z,87487.22
2023-02-02T13:43:19.836Z,87488.22
2023-02-02T13:46:06.957Z,87496.78
2023-02-02T13:49:06.374Z,87496.25
2023-02-02T13:51:42.815Z,87506.47
2023-02-02T13:54:47.444Z,87499.19
2023-02-02T13:58:02.812Z,87495.50
2023-02-02T14:00:42.761Z,87504.09
2023-02-02T14:03:39.301Z,87502.56
2023-02-02T14:06:21.144Z,87516.06
2023-02-02T14:08:56.663Z,87517.97
2023-02-02T14:11:40.612Z,87520.28
2023-02-02T14:14:22.219Z,87521.03
2023-02-02T14:16:51.570Z,87528.00
2023-02-02T14:19:47.759Z,87531.56
2023-02-02T14:22:14.860Z,87535.03
2023-02-02T14:24:47.088Z,87528.84
2023-02-02T14:27:17.167Z,87535.91
2023-02-02T14:29:46.533Z,87537.63
2023-02-02T14:32:26.426Z,87527.66
2023-02-02T14:35:09.066Z,87536.78
2023-02-02T14:37:48.149Z,87524.41
2023-02-02T14:40:31.234Z,87537.41
2023-02-02T14:43:41.210Z,87528.97
2023-02-02T14:46:14.502Z,87533.19
2023-02-02T14:49:14.855Z,87536.00
2023-02-02T14:51:54.312Z,87538.28
2023-02-02T14:54:35.797Z,87533.31
2023-02-02T14:57:27.780Z,87536.97
2023-02-02T14:59:59.990Z,87526.13
2023-02-02T15:02:38.268Z,87524.63
2023-02-02T15:05:30.632Z,87525.16
2023-02-02T15:08:27.883Z,87539.81
2023-02-02T15:11:06.509Z,87538.50
2023-02-02T15:13:37.859Z,87542.75
2023-02-02T15:16:25.053Z,87532.22
2023-02-02T15:19:06.894Z,87532.22
2023-02-02T15:21:39.557Z,87543.91
2023-02-02T15:24:24.731Z,87546.22
2023-02-02T15:26:54.231Z,87543.06
2023-02-02T15:30:03.379Z,87563.03
2023-02-02T15:32:32.346Z,87564.63
2023-02-02T15:35:08.172Z,87571.03
2023-02-02T15:37:41.656Z,87566.69
2023-02-02T15:40:24.583Z,87570.06
2023-02-02T15:43:06.700Z,87580.16
2023-02-02T15:46:01.025Z,87580.88
2023-02-02T15:48:33.747Z,87593.16
2023-02-02T15:51:16.287Z,87602.72
2023-02-02T15:53:43.791Z,87610.44
2023-02-02T15:56:24.898Z,87605.47
2023-02-02T15:58:57.428Z,87600.13
2023-02-02T16:01:26.961Z,87603.16
2023-02-02T16:04:42.905Z,87598.72
2023-02-02T16:07:20.871Z,87604.47
2023-02-02T16:09:49.105Z,87607.69
2023-02-02T16:12:23.512Z,87615.66
2023-02-02T16:14:55.579Z,87618.34
2023-02-02T16:17:29.312Z,87623.53
2023-02-02T16:20:12.599Z,87627.47
2023-02-02T16:22:42.322Z,87626.44
2023-02-02T16:25:18.437Z,87628.94
2023-02-02T16:27:48.690Z,87625.38
2023-02-02T16:30:30.518Z,87628.50
2023-02-02T16:32:57.943Z,87630.91
2023-02-02T16:35:37.438Z,87623.31
2023-02-02T16:38:17.812Z,87631.03
2023-02-02T16:40:45.068Z,87630.47
2023-02-02T16:43:28.175Z,87637.78
2023-02-02T16:46:12.727Z,87639.38
2023-02-02T16:48:56.989Z,87638.50
2023-02-02T16:51:32.823Z,87649.16
2023-02-02T16:54:07.296Z,87651.09
2023-02-02T16:56:45.123Z,87651.09
2023-02-02T16:59:35.714Z,87669.06
2023-02-02T17:02:45.212Z,87672.53
2023-02-02T17:05:27.658Z,87677.53
2023-02-02T17:08:00.720Z,87684.91
2023-02-02T17:10:34.325Z,87685.34
2023-02-02T17:13:04.256Z,87692.94
2023-02-02T17:15:36.907Z,87683.75
2023-02-02T17:18:05.483Z,87689.59
2023-02-02T17:20:33.389Z,87693.91
2023-02-02T17:23:07.728Z,87695.31
2023-02-02T17:25:43.291Z,87699.44
2023-02-02T17:28:16.247Z,87696.03
2023-02-02T17:30:47.048Z,87709.53
2023-02-02T17:33:19.428Z,87706.47
2023-02-02T17:35:54.739Z,87709.03
2023-02-02T17:38:25.455Z,87722.38
2023-02-02T17:40:54.866Z,87719.47
2023-02-02T17:43:22.442Z,87716.78
2023-02-02T17:45:49.999Z,87722.06
2023-02-02T17:48:17.682Z,87725.84
2023-02-02T17:50:46.228Z,87731.25
2023-02-02T17:53:17.524Z,87730.59
2023-02-02T17:55:46.589Z,87726.78
2023-02-02T17:58:15.077Z,87736.91
2023-02-02T18:00:44.210Z,87717.59
2023-02-02T18:03:18.097Z,87733.72
2023-02-02T18:05:45.607Z,87738.63
2023-02-02T18:08:14.218Z,87728.69
2023-02-02T18:10:44.005Z,87733.28
2023-02-02T18:13:18.582Z,87735.63
2023-02-02T18:15:46.589Z,87732.25
2023-02-02T18:18:13.758Z,87749.47
2023-02-02T18:20:47.056Z,87743.88
2023-02-02T18:23:15.886Z,87739.94
2023-02-02T18:25:43.580Z,87754.50
2023-02-02T18:28:11.442Z,87752.94
2023-02-02T18:30:41.398Z,87754.28
2023-02-02T18:33:10.718Z,87756.88
2023-02-02T18:35:48.920Z,87757.09
2023-02-02T18:38:16.292Z,87750.69
2023-02-02T18:40:43.734Z,87749.09
2023-02-02T18:43:11.036Z,87759.31
2023-02-02T18:45:38.807Z,87756.41
2023-02-02T18:48:06.250Z,87765.41
2023-02-02T18:50:33.623Z,87764.34
2023-02-02T18:53:01.405Z,87769.69
2023-02-02T18:55:28.937Z,87773.38
2023-02-02T18:57:58.800Z,87770.00
2023-02-02T19:00:26.059Z,87769.38
2023-02-02T19:02:53.332Z,87770.63
2023-02-02T19:05:20.433Z,87779.78
2023-02-02T19:07:47.666Z,87775.97
2023-02-02T19:10:15.905Z,87780.13
2023-02-02T19:12:54.761Z,87786.28
2023-02-02T19:15:25.372Z,87788.56
2023-02-02T19:17:55.362Z,87790.41
2023-02-02T19:20:29.441Z,87781.13
2023-02-02T19:23:15.191Z,87783.56
2023-02-02T19:25:47.064Z,87786.50
2023-02-02T19:28:29.911Z,87795.97
2023-02-02T19:31:01.228Z,87800.84
2023-02-02T19:33:52.491Z,87803.38
2023-02-02T19:36:26.080Z,87810.53
2023-02-02T19:39:04.977Z,87805.81
2023-02-02T19:41:32.918Z,87816.97
2023-02-02T19:44:11.387Z,87818.56
2023-02-02T19:46:45.278Z,87818.22
2023-02-02T19:49:36.976Z,87831.13
2023-02-02T19:52:16.643Z,87834.16
2023-02-02T19:54:45.080Z,87829.44
2023-02-02T19:57:35.955Z,87837.25
2023-02-02T20:00:18.667Z,87829.75
2023-02-02T20:03:06.471Z,87845.94
2023-02-02T20:05:41.767Z,87840.91
2023-02-02T20:08:29.999Z,87844.13
2023-02-02T20:11:03.460Z,87845.50
2023-02-02T20:13:43.084Z,87849.78
2023-02-02T20:16:21.714Z,87848.38
2023-02-02T20:18:55.659Z,87843.78
2023-02-02T20:21:46.421Z,87855.44
2023-02-02T20:24:25.590Z,87852.66
2023-02-02T20:26:57.554Z,87846.25
2023-02-02T20:29:36.944Z,87847.00
2023-02-02T20:32:15.386Z,87846.28
2023-02-02T20:34:45.039Z,87847.81
2023-02-02T20:37:28.231Z,87847.81
2023-02-02T20:40:00.208Z,87855.47
2023-02-02T20:42:28.943Z,87860.03
2023-02-02T20:44:56.612Z,87877.78
2023-02-02T20:47:24.472Z,87871.59
2023-02-02T20:49:52.118Z,87875.91
2023-02-02T20:52:19.920Z,87881.44
2023-02-02T20:54:48.048Z,87884.25
2023-02-02T20:57:17.366Z,87894.19
2023-02-02T20:59:44.649Z,87884.22
2023-02-02T21:02:17.629Z,87886.34
2023-02-02T21:04:50.877Z,87897.66
2023-02-02T21:07:21.327Z,87898.00
2023-02-02T21:09:51.080Z,87896.16
2023-02-02T21:12:18.722Z,87908.59
2023-02-02T21:14:45.988Z,87914.88
2023-02-02T21:17:15.678Z,87911.94
2023-02-02T21:19:43.898Z,87911.59
2023-02-02T21:22:12.448Z,87911.63
2023-02-02T21:24:39.993Z,87916.69
2023-02-02T21:27:07.427Z,87916.97
2023-02-02T21:29:34.764Z,87910.28
2023-02-02T21:32:03.543Z,87911.19
2023-02-02T21:34:31.973Z,87909.22
2023-02-02T21:36:59.541Z,87903.56
2023-02-02T21:39:33.930Z,87906.63
2023-02-02T21:42:15.699Z,87891.50
2023-02-02T21:44:51.167Z,87905.88
2023-02-02T21:47:49.655Z,87905.13
2023-02-02T21:50:24.741Z,87902.06
2023-02-02T21:53:07.675Z,87902.50
2023-02-02T21:55:38.232Z,87893.16
2023-02-02T21:58:35.315Z,87905.72
2023-02-02T22:01:31.642Z,87906.06
2023-02-02T22:03:59.123Z,87913.09
2023-02-02T22:06:34.925Z,87911.38
2023-02-02T22:09:24.108Z,87920.38
2023-02-02T22:11:57.203Z,87926.38
2023-02-02T22:14:39.420Z,87938.59
2023-02-02T22:17:26.569Z,87938.47
2023-02-02T22:20:27.812Z,87939.84
2023-02-02T22:22:55.366Z,87944.13
2023-02-02T22:25:37.767Z,87949.47
2023-02-02T22:28:23.783Z,87946.25
2023-02-02T22:30:56.219Z,87943.22
2023-02-02T22:33:24.407Z,87948.22
2023-02-02T22:35:51.829Z,87937.53
2023-02-02T22:38:23.729Z,87954.66
2023-02-02T22:40:52.705Z,87956.34
2023-02-02T22:43:21.724Z,87947.31
2023-02-02T22:45:49.395Z,87952.53
2023-02-02T22:48:17.205Z,87958.78
2023-02-02T22:50:44.696Z,87962.00
2023-02-02T22:53:11.948Z,87955.41
2023-02-02T22:55:39.115Z,87957.38
2023-02-02T22:58:06.385Z,87963.69
2023-02-02T23:00:33.519Z,87959.69
2023-02-02T23:03:01.094Z,87964.91
2023-02-02T23:05:29.166Z,87964.16
2023-02-02T23:07:56.652Z,87958.78
2023-02-02T23:10:27.873Z,87961.38
2023-02-02T23:12:56.929Z,87968.41
2023-02-02T23:15:24.120Z,87959.09
2023-02-02T23:17:51.563Z,87959.72
2023-02-02T23:20:19.543Z,87959.09
2023-02-02T23:22:46.914Z,87951.75
2023-02-02T23:25:15.197Z,87954.19
2023-02-02T23:27:42.737Z,87950.56
2023-02-02T23:30:12.646Z,87953.91
2023-02-02T23:32:40.057Z,87962.91
2023-02-02T23:35:10.567Z,87963.38
2023-02-02T23:37:38.771Z,87965.34
2023-02-02T23:40:07.147Z,87960.31
2023-02-02T23:42:34.942Z,87965.03
2023-02-02T23:45:02.176Z,87958.63
2023-02-02T23:47:29.494Z,87957.38
2023-02-02T23:49:57.007Z,87958.03
2023-02-02T23:52:24.512Z,87951.28
2023-02-02T23:54:51.945Z,87942.56
2023-02-02T23:57:19.115Z,87958.28
2023-02-02T23:59:46.249Z,87952.19
